Time;durP1;ratioP1;P1;durP2;ratioP2;P2;SDS_P1;SDS_P2;PMS_P1;PMS_P2;Temp;Humidity;BMP_temperature;BMP_pressure;BME280_temperature;BME280_humidity;BME280_pressure;Samples;Min_cycle;Max_cycle;Signal;HPM_P1;HPM_P2
2023/12/13 00:00:39;;;;;;;;;;;;;;;1.36;100.00;96865.24;110477;1239;71463;-62
2023/12/13 00:03:28;;;;;;;;;;;;;;;1.32;100.00;96860.27;110625;1239;68377;-62
2023/12/13 00:05:58;;;;;;;;;;;;;;;1.27;100.00;96864.42;110542;1239;68354;-62
2023/12/13 00:08:28;;;;;;;;;;;;;;;1.23;100.00;96861.98;110467;1237;59664;-62
2023/12/13 00:10:59;;;;;;;;;;;;;;;1.23;100.00;96867.02;110500;1239;59687;-63
2023/12/13 00:13:34;;;;;;;;;;;;;;;1.21;100.00;96869.83;110479;1241;70678;-62
2023/12/13 00:16:06;;;;;;;;;;;;;;;1.21;100.00;96869.34;110573;1239;69224;-63
2023/12/13 00:18:38;;;;;;;;;;;;;;;1.20;100.00;96870.57;110626;1239;68338;-63
2023/12/13 00:21:13;;;;;;;;;;;;;;;1.17;100.00;96865.73;110601;1239;59743;-63
2023/12/13 00:23:48;;;;;;;;;;;;;;;1.15;100.00;96865.46;110627;1240;59729;-63
2023/12/13 00:26:23;;;;;;;;;;;;;;;1.13;100.00;96860.73;110575;1238;70485;-63
2023/12/13 00:28:53;;;;;;;;;;;;;;;1.10;100.00;96855.54;110677;1239;69813;-63
2023/12/13 00:31:23;;;;;;;;;;;;;;;1.08;100.00;96855.33;110528;1237;68493;-63
2023/12/13 00:33:59;;;;;;;;;;;;;;;1.06;100.00;96849.57;110492;1238;59730;-63
2023/12/13 00:36:29;;;;;;;;;;;;;;;1.03;100.00;96851.58;110545;1239;59746;-63
2023/12/13 00:39:01;;;;;;;;;;;;;;;1.00;100.00;96861.29;110434;1239;71727;-64
2023/12/13 00:41:32;;;;;;;;;;;;;;;0.97;100.00;96870.70;110519;1237;68095;-63
2023/12/13 00:44:03;;;;;;;;;;;;;;;0.95;100.00;96874.55;110699;1245;69083;-63
2023/12/13 00:46:34;;;;;;;;;;;;;;;0.92;100.00;96871.94;110509;1238;59737;-63
2023/12/13 00:49:05;;;;;;;;;;;;;;;0.90;100.00;96869.27;110558;1237;59722;-63
2023/12/13 00:51:37;;;;;;;;;;;;;;;0.92;100.00;96864.05;110550;1239;70669;-63
2023/12/13 00:54:09;;;;;;;;;;;;;;;0.95;100.00;96861.86;110591;1240;69242;-63
2023/12/13 00:56:40;;;;;;;;;;;;;;;0.98;100.00;96857.96;110602;1239;68437;-63
2023/12/13 00:59:12;;;;;;;;;;;;;;;1.00;100.00;96856.65;110710;1245;59651;-63
2023/12/13 01:01:46;;;;;;;;;;;;;;;1.04;100.00;96851.89;110501;1239;59669;-63
2023/12/13 01:04:20;;;;;;;;;;;;;;;1.06;100.00;96847.34;110495;1237;70274;-63
2023/12/13 01:06:51;;;;;;;;;;;;;;;1.06;100.00;96846.13;110577;1238;68503;-63
2023/12/13 01:09:21;;;;;;;;;;;;;;;1.04;100.00;96848.80;110634;1238;69334;-61
2023/12/13 01:11:52;;;;;;;;;;;;;;;0.99;100.00;96852.27;110298;1241;59651;-62
2023/12/13 01:14:22;;;;;;;;;;;;;;;0.96;100.00;96844.83;110495;1238;59647;-61
2023/12/13 01:16:54;;;;;;;;;;;;;;;0.93;100.00;96839.13;110386;1241;70617;-61
2023/12/13 01:19:25;;;;;;;;;;;;;;;0.93;100.00;96839.67;110459;1239;69109;-61
2023/12/13 01:21:57;;;;;;;;;;;;;;;0.92;100.00;96839.33;110510;1239;68222;-61
2023/12/13 01:24:37;;;;;;;;;;;;;;;0.95;100.00;96834.26;110513;1239;59696;-61
2023/12/13 01:27:07;;;;;;;;;;;;;;;0.96;100.00;96827.52;110467;1239;59652;-62
2023/12/13 01:29:36;;;;;;;;;;;;;;;0.98;100.00;96828.79;110464;1239;70586;-61
2023/12/13 01:32:07;;;;;;;;;;;;;;;0.99;100.00;96820.98;110560;1239;69378;-61
2023/12/13 01:34:41;;;;;;;;;;;;;;;1.03;100.00;96820.02;110432;1238;69259;-61
2023/12/13 01:37:14;;;;;;;;;;;;;;;1.06;100.00;96814.39;110536;1238;59738;-61
2023/12/13 01:39:50;;;;;;;;;;;;;;;1.09;100.00;96813.02;110704;1238;59679;-61
2023/12/13 01:42:23;;;;;;;;;;;;;;;1.13;100.00;96811.48;110650;1237;70705;-62
2023/12/13 01:44:54;;;;;;;;;;;;;;;1.17;100.00;96813.19;110576;1239;68485;-62
2023/12/13 01:47:29;;;;;;;;;;;;;;;1.22;100.00;96815.21;110510;1238;69005;-62
2023/12/13 01:50:07;;;;;;;;;;;;;;;1.26;100.00;96821.70;110649;1239;59733;-62
2023/12/13 01:52:41;;;;;;;;;;;;;;;1.29;100.00;96818.30;109216;1239;1734951;-62
2023/12/13 01:55:14;;;;;;;;;;;;;;;1.31;100.00;96809.30;110585;1238;71417;-62
2023/12/13 01:57:47;;;;;;;;;;;;;;;1.33;100.00;96801.49;110542;1239;69225;-62
2023/12/13 02:00:19;;;;;;;;;;;;;;;1.33;100.00;96801.98;110447;1238;69447;-62
2023/12/13 02:02:53;;;;;;;;;;;;;;;1.35;100.00;96799.66;110558;1238;59662;-62
2023/12/13 02:05:28;;;;;;;;;;;;;;;1.37;100.00;96782.75;110485;1238;59683;-62
2023/12/13 02:07:58;;;;;;;;;;;;;;;1.39;100.00;96768.23;110363;1242;71411;-62
2023/12/13 02:10:29;;;;;;;;;;;;;;;1.41;100.00;96765.94;110654;1239;68418;-62
2023/12/13 02:12:59;;;;;;;;;;;;;;;1.40;100.00;96758.58;110617;1239;69559;-62
2023/12/13 02:15:35;;;;;;;;;;;;;;;1.40;100.00;96758.77;110527;1239;59743;-62
2023/12/13 02:18:08;;;;;;;;;;;;;;;1.38;100.00;96753.87;110681;1239;59643;-62
2023/12/13 02:20:44;;;;;;;;;;;;;;;1.36;100.00;96749.33;110594;1239;70276;-61
2023/12/13 02:23:17;;;;;;;;;;;;;;;1.35;100.00;96747.48;110576;1240;69757;-61
2023/12/13 02:25:54;;;;;;;;;;;;;;;1.34;100.00;96738.44;110514;1239;69276;-61
2023/12/13 02:28:32;;;;;;;;;;;;;;;1.34;100.00;96736.89;110454;1239;59735;-61
2023/12/13 02:31:09;;;;;;;;;;;;;;;1.32;100.00;96722.38;110656;1241;59705;-61
2023/12/13 02:33:41;;;;;;;;;;;;;;;1.31;100.00;96722.44;110515;1238;71415;-61
2023/12/13 02:36:11;;;;;;;;;;;;;;;1.32;100.00;96716.41;110464;1238;69159;-61
2023/12/13 02:38:44;;;;;;;;;;;;;;;1.33;100.00;96712.41;110445;1242;67889;-61
2023/12/13 02:41:32;;;;;;;;;;;;;;;1.36;100.00;96699.72;110297;1242;59754;-63
2023/12/13 02:44:05;;;;;;;;;;;;;;;1.39;100.00;96698.55;110341;1242;59681;-62
2023/12/13 02:46:38;;;;;;;;;;;;;;;1.40;100.00;96692.45;110402;1241;71242;-63
2023/12/13 02:49:09;;;;;;;;;;;;;;;1.40;100.00;96688.70;110500;1241;69143;-63
2023/12/13 02:51:40;;;;;;;;;;;;;;;1.39;100.00;96682.39;110445;1241;68539;-63
2023/12/13 02:54:10;;;;;;;;;;;;;;;1.39;100.00;96678.27;110359;1241;59757;-61
2023/12/13 02:56:41;;;;;;;;;;;;;;;1.39;100.00;96671.25;110572;1241;59676;-60
2023/12/13 02:59:11;;;;;;;;;;;;;;;1.39;100.00;96677.41;110678;1240;71518;-61
2023/12/13 03:01:41;;;;;;;;;;;;;;;1.40;100.00;96677.71;110418;1241;69990;-61
2023/12/13 03:04:14;;;;;;;;;;;;;;;1.44;100.00;96674.96;110420;1241;69627;-61
2023/12/13 03:06:46;;;;;;;;;;;;;;;1.48;100.00;96666.88;110427;1241;59730;-60
2023/12/13 03:09:20;;;;;;;;;;;;;;;1.52;100.00;96653.07;110276;1240;59744;-62
2023/12/13 03:11:50;;;;;;;;;;;;;;;1.60;100.00;96647.40;110392;1243;71379;-61
2023/12/13 03:14:21;;;;;;;;;;;;;;;1.67;100.00;96641.05;110466;1241;69134;-61
2023/12/13 03:16:51;;;;;;;;;;;;;;;1.72;100.00;96646.77;110520;1241;69350;-61
2023/12/13 03:19:22;;;;;;;;;;;;;;;1.77;100.00;96645.35;110473;1241;59735;-61
2023/12/13 03:21:54;;;;;;;;;;;;;;;1.80;100.00;96633.84;110378;1241;59715;-61
2023/12/13 03:24:30;;;;;;;;;;;;;;;1.84;100.00;96615.77;110424;1240;71411;-61
2023/12/13 03:27:02;;;;;;;;;;;;;;;1.90;100.00;96608.95;110380;1240;69455;-61
2023/12/13 03:29:33;;;;;;;;;;;;;;;1.94;100.00;96611.82;110366;1241;69306;-61
2023/12/13 03:32:05;;;;;;;;;;;;;;;1.99;100.00;96611.20;110310;1239;59693;-61
2023/12/13 03:34:36;;;;;;;;;;;;;;;2.03;100.00;96612.88;110355;1241;59628;-61
2023/12/13 03:37:07;;;;;;;;;;;;;;;2.07;100.00;96613.57;110327;1242;70634;-61
2023/12/13 03:39:36;;;;;;;;;;;;;;;2.10;100.00;96613.09;110562;1239;69752;-62
2023/12/13 03:42:07;;;;;;;;;;;;;;;2.11;100.00;96606.13;110539;1239;69873;-61
2023/12/13 03:44:38;;;;;;;;;;;;;;;2.12;100.00;96603.17;110569;1240;59761;-61
2023/12/13 03:47:10;;;;;;;;;;;;;;;2.16;100.00;96598.67;110600;1241;59690;-61
2023/12/13 03:49:42;;;;;;;;;;;;;;;2.20;100.00;96592.98;110381;1238;71365;-61
2023/12/13 03:52:12;;;;;;;;;;;;;;;2.24;100.00;96593.27;110445;1242;69617;-61
2023/12/13 03:54:44;;;;;;;;;;;;;;;2.28;100.00;96594.58;110561;1238;69116;-61
2023/12/13 03:57:15;;;;;;;;;;;;;;;2.31;100.00;96590.64;110233;1242;59810;-61
2023/12/13 03:59:46;;;;;;;;;;;;;;;2.35;100.00;96583.93;110587;1240;59617;-62
2023/12/13 04:02:20;;;;;;;;;;;;;;;2.37;100.00;96580.02;110669;1246;70702;-61
2023/12/13 04:04:50;;;;;;;;;;;;;;;2.42;100.00;96579.57;110516;1238;69237;-61
2023/12/13 04:07:21;;;;;;;;;;;;;;;2.46;100.00;96581.09;110471;1238;68320;-61
2023/12/13 04:09:53;;;;;;;;;;;;;;;2.49;100.00;96580.75;110391;1238;59725;-61
2023/12/13 04:12:24;;;;;;;;;;;;;;;2.53;100.00;96578.13;110429;1242;59665;-61
2023/12/13 04:14:55;;;;;;;;;;;;;;;2.58;100.00;96572.05;110574;1238;71235;-61
2023/12/13 04:17:26;;;;;;;;;;;;;;;2.60;100.00;96558.30;110558;1239;69618;-61
2023/12/13 04:19:58;;;;;;;;;;;;;;;2.63;100.00;96553.52;110590;1241;69317;-61
2023/12/13 04:22:31;;;;;;;;;;;;;;;2.65;100.00;96555.30;110616;1239;59676;-61
2023/12/13 04:25:03;;;;;;;;;;;;;;;2.67;100.00;96552.61;110709;1238;59671;-62
2023/12/13 04:27:33;;;;;;;;;;;;;;;2.69;100.00;96548.52;110737;1239;71400;-62
2023/12/13 04:30:04;;;;;;;;;;;;;;;2.72;100.00;96549.20;110643;1242;69279;-62
2023/12/13 04:32:35;;;;;;;;;;;;;;;2.76;100.00;96547.62;110463;1242;69483;-61
2023/12/13 04:35:05;;;;;;;;;;;;;;;2.79;100.00;96543.31;110507;1239;59692;-62
2023/12/13 04:37:36;;;;;;;;;;;;;;;2.83;100.00;96538.33;110425;1241;59634;-63
2023/12/13 04:40:06;;;;;;;;;;;;;;;2.84;100.00;96542.89;110518;1240;70452;-61
2023/12/13 04:42:35;;;;;;;;;;;;;;;2.89;100.00;96531.28;110546;1242;70162;-63
2023/12/13 04:45:08;;;;;;;;;;;;;;;2.93;100.00;96517.77;110598;1241;68160;-61
2023/12/13 04:47:38;;;;;;;;;;;;;;;2.98;100.00;96510.58;110601;1239;59770;-61
2023/12/13 04:50:09;;;;;;;;;;;;;;;3.04;100.00;96511.27;110579;1241;59630;-61
2023/12/13 04:52:39;;;;;;;;;;;;;;;3.09;100.00;96515.32;110430;1240;71301;-61
2023/12/13 04:55:09;;;;;;;;;;;;;;;3.12;100.00;96511.01;110622;1241;69243;-61
2023/12/13 04:57:38;;;;;;;;;;;;;;;3.15;100.00;96504.43;110574;1239;69855;-62
2023/12/13 05:00:08;;;;;;;;;;;;;;;3.18;100.00;96497.04;110532;1241;59670;-62
2023/12/13 05:02:38;;;;;;;;;;;;;;;3.21;100.00;96496.38;110480;1240;59682;-62
2023/12/13 05:05:08;;;;;;;;;;;;;;;3.22;100.00;96498.20;110519;1239;70374;-62
2023/12/13 05:07:38;;;;;;;;;;;;;;;3.23;100.00;96498.11;110546;1238;69180;-64
2023/12/13 05:10:09;;;;;;;;;;;;;;;3.26;100.00;96493.48;110600;1238;68525;-62
2023/12/13 05:12:39;;;;;;;;;;;;;;;3.27;100.00;96490.47;110554;1238;59738;-62
2023/12/13 05:15:10;;;;;;;;;;;;;;;3.27;100.00;96489.10;110490;1242;59668;-63
2023/12/13 05:17:40;;;;;;;;;;;;;;;3.29;100.00;96491.42;110507;1240;71570;-64
2023/12/13 05:20:10;;;;;;;;;;;;;;;3.30;100.00;96492.02;110508;1241;69129;-63
2023/12/13 05:22:40;;;;;;;;;;;;;;;3.32;100.00;96489.16;110657;1239;68976;-62
2023/12/13 05:25:09;;;;;;;;;;;;;;;3.33;100.00;96493.41;110546;1239;60070;-63
2023/12/13 05:27:39;;;;;;;;;;;;;;;3.35;100.00;96490.92;110615;1240;59725;-62
2023/12/13 05:30:09;;;;;;;;;;;;;;;3.35;100.00;96496.05;110424;1238;71802;-62
2023/12/13 05:32:38;;;;;;;;;;;;;;;3.36;100.00;96494.79;110555;1240;69796;-63
2023/12/13 05:35:08;;;;;;;;;;;;;;;3.36;100.00;96490.48;110613;1241;68805;-62
2023/12/13 05:37:37;;;;;;;;;;;;;;;3.38;100.00;96487.98;110511;1241;59742;-62
2023/12/13 05:40:07;;;;;;;;;;;;;;;3.38;100.00;96486.60;110423;1241;59747;-63
2023/12/13 05:42:37;;;;;;;;;;;;;;;3.40;100.00;96479.95;110435;1238;70675;-62
2023/12/13 05:45:06;;;;;;;;;;;;;;;3.42;100.00;96472.77;110593;1239;68520;-62
2023/12/13 05:47:35;;;;;;;;;;;;;;;3.43;100.00;96470.60;110608;1239;68980;-62
2023/12/13 05:50:05;;;;;;;;;;;;;;;3.46;100.00;96466.67;110481;1240;59750;-61
2023/12/13 05:52:36;;;;;;;;;;;;;;;3.48;100.00;96465.14;110553;1241;59676;-62
2023/12/13 05:55:06;;;;;;;;;;;;;;;3.50;100.00;96466.20;110538;1238;72305;-62
2023/12/13 05:57:35;;;;;;;;;;;;;;;3.53;100.00;96467.64;110460;1241;69832;-63
2023/12/13 06:00:06;;;;;;;;;;;;;;;3.53;100.00;96470.02;110559;1238;69210;-63
2023/12/13 06:02:39;;;;;;;;;;;;;;;3.53;100.00;96466.20;110414;1242;59694;-62
2023/12/13 06:05:24;;;;;;;;;;;;;;;3.54;100.00;96457.88;110479;1240;59681;-63
2023/12/13 06:07:54;;;;;;;;;;;;;;;3.56;100.00;96452.46;110476;1239;71404;-62
2023/12/13 06:10:24;;;;;;;;;;;;;;;3.56;100.00;96443.50;110548;1238;68492;-62
2023/12/13 06:12:53;;;;;;;;;;;;;;;3.53;100.00;96430.88;110360;1242;68522;-62
2023/12/13 06:15:23;;;;;;;;;;;;;;;3.52;100.00;96418.58;110379;1240;59735;-63
2023/12/13 06:17:52;;;;;;;;;;;;;;;3.51;100.00;96412.41;110290;1242;59641;-62
2023/12/13 06:20:21;;;;;;;;;;;;;;;3.49;100.00;96408.55;110505;1240;70464;-62
2023/12/13 06:22:50;;;;;;;;;;;;;;;3.52;100.00;96406.86;110462;1239;69059;-63
2023/12/13 06:25:19;;;;;;;;;;;;;;;3.54;100.00;96402.55;110546;1240;68493;-62
2023/12/13 06:27:49;;;;;;;;;;;;;;;3.58;100.00;96398.58;110543;1238;60262;-63
2023/12/13 06:30:19;;;;;;;;;;;;;;;3.63;100.00;96408.64;110580;1239;59684;-62
2023/12/13 06:32:48;;;;;;;;;;;;;;;3.67;100.00;96421.67;110485;1238;72104;-63
2023/12/13 06:35:18;;;;;;;;;;;;;;;3.69;100.00;96414.61;110490;1239;69041;-62
2023/12/13 06:37:48;;;;;;;;;;;;;;;3.72;100.00;96407.04;110491;1241;69124;-61
2023/12/13 06:40:18;;;;;;;;;;;;;;;3.76;100.00;96407.47;110488;1241;59735;-62
2023/12/13 06:42:47;;;;;;;;;;;;;;;3.80;100.00;96404.27;110608;1237;59742;-62
2023/12/13 06:45:17;;;;;;;;;;;;;;;3.84;100.00;96397.85;110603;1237;71210;-62
2023/12/13 06:47:48;;;;;;;;;;;;;;;3.87;100.00;96391.27;110486;1238;69142;-62
2023/12/13 06:50:19;;;;;;;;;;;;;;;3.88;100.00;96393.63;110482;1238;69321;-62
2023/12/13 06:52:48;;;;;;;;;;;;;;;3.89;100.00;96398.71;110494;1241;59684;-62
2023/12/13 06:55:18;;;;;;;;;;;;;;;3.93;100.00;96414.35;110674;1239;59647;-61
2023/12/13 06:57:48;;;;;;;;;;;;;;;3.95;100.00;96419.95;110534;1239;70774;-63
2023/12/13 07:00:21;;;;;;;;;;;;;;;3.97;100.00;96417.56;110476;1239;69753;-61
2023/12/13 07:02:50;;;;;;;;;;;;;;;3.98;100.00;96409.22;110533;1239;69857;-61
2023/12/13 07:05:20;;;;;;;;;;;;;;;3.98;100.00;96403.88;110512;1239;59757;-61
2023/12/13 07:07:49;;;;;;;;;;;;;;;3.98;100.00;96404.23;110531;1238;59696;-61
2023/12/13 07:10:18;;;;;;;;;;;;;;;3.97;100.00;96406.48;110633;1239;70373;-61
2023/12/13 07:12:47;;;;;;;;;;;;;;;3.93;100.00;96407.58;110654;1242;69810;-62
2023/12/13 07:15:17;;;;;;;;;;;;;;;3.94;100.00;96418.93;110603;1239;68437;-62
2023/12/13 07:17:46;;;;;;;;;;;;;;;3.95;100.00;96423.49;110560;1240;59740;-63
2023/12/13 07:20:17;;;;;;;;;;;;;;;3.96;100.00;96411.42;110511;1240;59599;-61
2023/12/13 07:22:49;;;;;;;;;;;;;;;3.89;100.00;96405.11;110547;1240;71984;-61
2023/12/13 07:25:18;;;;;;;;;;;;;;;3.84;100.00;96408.88;110575;1242;69300;-62
2023/12/13 07:27:48;;;;;;;;;;;;;;;3.80;100.00;96409.95;110487;1239;69317;-61
2023/12/13 07:30:18;;;;;;;;;;;;;;;3.73;100.00;96405.77;110683;1238;59657;-61
2023/12/13 07:32:49;;;;;;;;;;;;;;;3.62;100.00;96396.62;110639;1239;59700;-62
2023/12/13 07:35:18;;;;;;;;;;;;;;;3.55;100.00;96397.52;110589;1238;71839;-62
2023/12/13 07:37:48;;;;;;;;;;;;;;;3.50;100.00;96400.07;110605;1238;69813;-61
2023/12/13 07:40:17;;;;;;;;;;;;;;;3.47;100.00;96384.75;110431;1242;69838;-63
2023/12/13 07:42:47;;;;;;;;;;;;;;;3.39;100.00;96377.81;110672;1239;59657;-62
2023/12/13 07:45:21;;;;;;;;;;;;;;;3.34;100.00;96381.93;110528;1239;59737;-63
2023/12/13 07:47:51;;;;;;;;;;;;;;;3.29;100.00;96379.33;110622;1240;71405;-62
2023/12/13 07:50:42;;;;;;;;;;;;;;;3.29;100.00;96377.05;110594;1239;70676;-62
2023/12/13 07:53:12;;;;;;;;;;;;;;;3.32;100.00;96380.52;110600;1241;68487;-62
2023/12/13 07:55:42;;;;;;;;;;;;;;;3.34;100.00;96384.70;110527;1243;59679;-62
2023/12/13 07:58:11;;;;;;;;;;;;;;;3.35;100.00;96385.00;110568;1240;59666;-62
2023/12/13 08:00:40;;;;;;;;;;;;;;;3.36;100.00;96392.02;110622;1239;71398;-61
2023/12/13 08:03:10;;;;;;;;;;;;;;;3.33;100.00;96386.11;110521;1239;69385;-59
2023/12/13 08:05:39;;;;;;;;;;;;;;;3.33;100.00;96380.13;110394;1238;68828;-63
2023/12/13 08:08:09;;;;;;;;;;;;;;;3.31;100.00;96386.60;110406;1242;60085;-61
2023/12/13 08:10:40;;;;;;;;;;;;;;;3.31;100.00;96384.72;110461;1239;59670;-61
2023/12/13 08:13:09;;;;;;;;;;;;;;;3.33;100.00;96383.05;110564;1239;71964;-62
2023/12/13 08:15:38;;;;;;;;;;;;;;;3.37;100.00;96380.05;110625;1239;69423;-62
2023/12/13 08:18:07;;;;;;;;;;;;;;;3.40;100.00;96377.45;110543;1240;68481;-63
2023/12/13 08:20:37;;;;;;;;;;;;;;;3.41;100.00;96373.23;110669;1242;59732;-60
2023/12/13 08:23:06;;;;;;;;;;;;;;;3.45;100.00;96365.80;110410;1242;59698;-62
2023/12/13 08:25:35;;;;;;;;;;;;;;;3.50;100.00;96363.40;110460;1238;71453;-61
2023/12/13 08:28:04;;;;;;;;;;;;;;;3.51;100.00;96354.73;110569;1238;68444;-62
2023/12/13 08:30:33;;;;;;;;;;;;;;;3.52;100.00;96359.17;110485;1240;70633;-62
2023/12/13 08:33:02;;;;;;;;;;;;;;;3.56;100.00;96357.69;110356;1242;59769;-62
2023/12/13 08:35:32;;;;;;;;;;;;;;;3.61;100.00;96355.84;110508;1242;59618;-61
2023/12/13 08:38:01;;;;;;;;;;;;;;;3.66;100.00;96352.06;110398;1242;70765;-61
2023/12/13 08:40:31;;;;;;;;;;;;;;;3.71;100.00;96344.70;110395;1242;69802;-61
2023/12/13 08:43:00;;;;;;;;;;;;;;;3.76;100.00;96337.83;110522;1242;69863;-62
2023/12/13 08:45:29;;;;;;;;;;;;;;;3.79;100.00;96325.56;110418;1241;59625;-62
2023/12/13 08:47:59;;;;;;;;;;;;;;;3.82;100.00;96319.70;110370;1240;59682;-61
2023/12/13 08:50:28;;;;;;;;;;;;;;;3.86;100.00;96308.42;110527;1241;71394;-62
2023/12/13 08:52:57;;;;;;;;;;;;;;;3.91;100.00;96304.52;110405;1240;69809;-62
2023/12/13 08:55:26;;;;;;;;;;;;;;;3.94;100.00;96291.89;110490;1240;70052;-62
2023/12/13 08:57:55;;;;;;;;;;;;;;;3.95;100.00;96285.64;110505;1238;59690;-61
2023/12/13 09:00:24;;;;;;;;;;;;;;;3.97;100.00;96282.91;110553;1242;59679;-61
2023/12/13 09:02:54;;;;;;;;;;;;;;;3.95;100.00;96278.17;110600;1242;71939;-61
2023/12/13 09:05:23;;;;;;;;;;;;;;;3.97;100.00;96266.34;110499;1238;69601;-61
2023/12/13 09:07:53;;;;;;;;;;;;;;;3.98;100.00;96258.72;110568;1241;69260;-61
2023/12/13 09:10:23;;;;;;;;;;;;;;;4.01;100.00;96262.81;110374;1241;59695;-61
2023/12/13 09:12:52;;;;;;;;;;;;;;;4.02;100.00;96268.98;110612;1240;59679;-62
2023/12/13 09:15:21;;;;;;;;;;;;;;;4.00;100.00;96264.74;110485;1241;72024;-61
2023/12/13 09:17:52;;;;;;;;;;;;;;;4.01;100.00;96259.86;110398;1238;69213;-62
2023/12/13 09:20:21;;;;;;;;;;;;;;;4.01;100.00;96253.64;110372;1242;69280;-62
2023/12/13 09:22:50;;;;;;;;;;;;;;;4.01;100.00;96248.30;110548;1238;59654;-62
2023/12/13 09:25:19;;;;;;;;;;;;;;;4.03;100.00;96249.05;110499;1242;59722;-62
2023/12/13 09:27:49;;;;;;;;;;;;;;;4.06;100.00;96247.27;110353;1241;69793;-62
2023/12/13 09:30:18;;;;;;;;;;;;;;;4.08;100.00;96244.95;110456;1242;67418;-62
2023/12/13 09:32:48;;;;;;;;;;;;;;;4.11;100.00;96238.41;110369;1241;70063;-62
2023/12/13 09:35:17;;;;;;;;;;;;;;;4.12;100.00;96227.48;110587;1238;59721;-62
2023/12/13 09:37:46;;;;;;;;;;;;;;;4.13;100.00;96226.90;110547;1240;59681;-62
2023/12/13 09:40:16;;;;;;;;;;;;;;;4.14;100.00;96228.16;110461;1238;70634;-61
2023/12/13 09:42:46;;;;;;;;;;;;;;;4.20;100.00;96227.08;110443;1238;68117;-62
2023/12/13 09:45:20;;;;;;;;;;;;;;;4.26;100.00;96223.59;110528;1242;69710;-62
2023/12/13 09:47:52;;;;;;;;;;;;;;;4.32;100.00;96218.33;110418;1241;60153;-61
2023/12/13 09:50:24;;;;;;;;;;;;;;;4.36;100.00;96215.68;110518;1241;59892;-62
2023/12/13 09:52:55;;;;;;;;;;;;;;;4.40;100.00;96214.77;110498;1238;71384;-62
2023/12/13 09:55:24;;;;;;;;;;;;;;;4.43;100.00;96209.34;110445;1241;69547;-62
2023/12/13 09:57:55;;;;;;;;;;;;;;;4.50;100.00;96209.55;110418;1241;69047;-62
2023/12/13 10:00:25;;;;;;;;;;;;;;;4.57;100.00;96204.94;110420;1239;59657;-62
2023/12/13 10:02:54;;;;;;;;;;;;;;;4.64;100.00;96206.34;110512;1241;59715;-61
2023/12/13 10:05:23;;;;;;;;;;;;;;;4.72;100.00;96208.58;110546;1240;71401;-61
2023/12/13 10:08:00;;;;;;;;;;;;;;;4.79;100.00;96209.83;110434;1247;69216;-61
2023/12/13 10:10:34;;;;;;;;;;;;;;;4.85;100.00;96197.30;110425;1240;69782;-64
2023/12/13 10:13:06;;;;;;;;;;;;;;;4.89;100.00;96193.45;110457;1241;59775;-63
2023/12/13 10:15:36;;;;;;;;;;;;;;;4.91;100.00;96192.07;110467;1239;59674;-63
2023/12/13 10:18:05;;;;;;;;;;;;;;;4.94;100.00;96194.81;110529;1242;71954;-61
2023/12/13 10:20:34;;;;;;;;;;;;;;;4.95;100.00;96194.20;110544;1245;69319;-61
2023/12/13 10:23:05;;;;;;;;;;;;;;;4.98;100.00;96193.80;110496;1242;69892;-61
2023/12/13 10:25:36;;;;;;;;;;;;;;;5.00;100.00;96188.36;110246;1242;59680;-61
2023/12/13 10:28:06;;;;;;;;;;;;;;;5.01;100.00;96187.41;110488;1242;59678;-62
2023/12/13 10:30:36;;;;;;;;;;;;;;;5.03;100.00;96177.73;110518;1241;71526;-62
2023/12/13 10:33:06;;;;;;;;;;;;;;;5.02;100.00;96178.89;110566;1241;69719;-64
2023/12/13 10:35:35;;;;;;;;;;;;;;;5.03;100.00;96174.98;110515;1241;68272;-63
2023/12/13 10:38:05;;;;;;;;;;;;;;;5.03;100.00;96173.76;110504;1238;59668;-62
2023/12/13 10:40:35;;;;;;;;;;;;;;;5.07;100.00;96169.52;110495;1238;59683;-62
2023/12/13 10:43:08;;;;;;;;;;;;;;;5.08;100.00;96163.77;110655;1238;71947;-61
2023/12/13 10:45:43;;;;;;;;;;;;;;;5.11;100.00;96152.02;110382;1242;70163;-62
2023/12/13 10:48:14;;;;;;;;;;;;;;;5.13;100.00;96146.86;110369;1240;68331;-62
2023/12/13 10:50:48;;;;;;;;;;;;;;;5.16;100.00;96148.05;110455;1242;59689;-61
2023/12/13 10:53:17;;;;;;;;;;;;;;;5.16;100.00;96139.90;110361;1241;59654;-61
2023/12/13 10:55:47;;;;;;;;;;;;;;;5.16;100.00;96137.35;110405;1242;71368;-62
2023/12/13 10:58:19;;;;;;;;;;;;;;;5.12;100.00;96134.96;110419;1238;69026;-61
2023/12/13 11:00:48;;;;;;;;;;;;;;;5.14;100.00;96122.45;110503;1243;69161;-61
2023/12/13 11:03:36;;;;;;;;;;;;;;;5.15;100.00;96107.69;110475;1238;59705;-62
2023/12/13 11:06:05;;;;;;;;;;;;;;;5.17;100.00;96103.20;110418;1242;59760;-61
2023/12/13 11:08:40;;;;;;;;;;;;;;;5.20;100.00;96102.17;110533;1242;71341;-61
2023/12/13 11:11:14;;;;;;;;;;;;;;;5.21;100.00;96097.09;110473;1241;69261;-61
2023/12/13 11:13:48;;;;;;;;;;;;;;;5.23;100.00;96088.10;110380;1238;69295;-61
2023/12/13 11:16:22;;;;;;;;;;;;;;;5.25;100.00;96086.95;110384;1241;59714;-61
2023/12/13 11:18:56;;;;;;;;;;;;;;;5.27;100.00;96085.23;110460;1241;59678;-61
2023/12/13 11:21:31;;;;;;;;;;;;;;;5.31;100.00;96082.84;110403;1242;70465;-61
2023/12/13 11:24:10;;;;;;;;;;;;;;;5.34;100.00;96079.02;110550;1241;69639;-62
2023/12/13 11:26:42;;;;;;;;;;;;;;;5.39;100.00;96071.89;110511;1241;68545;-61
2023/12/13 11:29:18;;;;;;;;;;;;;;;5.41;100.00;96067.82;110574;1241;59753;-61
2023/12/13 11:31:49;;;;;;;;;;;;;;;5.46;100.00;96056.73;110416;1242;59692;-61
2023/12/13 11:34:29;;;;;;;;;;;;;;;5.48;100.00;96050.34;110515;1241;72281;-62
2023/12/13 11:37:00;;;;;;;;;;;;;;;5.51;100.00;96050.66;110373;1241;69638;-62
2023/12/13 11:39:29;;;;;;;;;;;;;;;5.48;100.00;96051.04;110468;1240;70045;-61
2023/12/13 11:42:00;;;;;;;;;;;;;;;5.51;100.00;96055.14;110388;1243;59697;-62
2023/12/13 11:44:30;;;;;;;;;;;;;;;5.52;100.00;96048.11;110383;1241;59727;-62
2023/12/13 11:47:00;;;;;;;;;;;;;;;5.53;100.00;96046.16;110408;1241;70477;-62
2023/12/13 11:49:30;;;;;;;;;;;;;;;5.51;100.00;96043.55;110415;1240;69777;-61
2023/12/13 11:52:00;;;;;;;;;;;;;;;5.53;100.00;96035.27;110353;1240;69850;-62
2023/12/13 11:54:29;;;;;;;;;;;;;;;5.53;100.00;96033.16;110436;1241;59708;-62
2023/12/13 11:56:59;;;;;;;;;;;;;;;5.54;100.00;96033.28;110473;1241;59759;-61
2023/12/13 11:59:28;;;;;;;;;;;;;;;5.52;100.00;96042.05;110615;1242;70722;-62
2023/12/13 12:02:00;;;;;;;;;;;;;;;5.53;100.00;96048.72;110486;1241;69828;-62
2023/12/13 12:04:29;;;;;;;;;;;;;;;5.54;100.00;96056.31;110473;1241;68800;-61
2023/12/13 12:06:58;;;;;;;;;;;;;;;5.54;100.00;96056.27;110450;1242;59762;-62
2023/12/13 12:09:27;;;;;;;;;;;;;;;5.55;100.00;96052.61;110420;1241;59632;-61
2023/12/13 12:11:57;;;;;;;;;;;;;;;5.56;100.00;96054.91;110421;1242;71983;-62
2023/12/13 12:14:27;;;;;;;;;;;;;;;5.55;100.00;96055.80;110480;1238;69039;-61
2023/12/13 12:16:59;;;;;;;;;;;;;;;5.53;100.00;96056.85;110482;1241;69283;-61
2023/12/13 12:19:31;;;;;;;;;;;;;;;5.52;100.00;96052.09;110444;1240;60139;-61
2023/12/13 12:22:03;;;;;;;;;;;;;;;5.52;100.00;96044.31;110464;1242;59674;-60
2023/12/13 12:24:35;;;;;;;;;;;;;;;5.54;100.00;96039.34;110512;1238;71177;-60
2023/12/13 12:27:08;;;;;;;;;;;;;;;5.54;100.00;96032.57;110427;1242;69774;-61
2023/12/13 12:29:38;;;;;;;;;;;;;;;5.56;100.00;96033.86;110607;1242;69924;-61
2023/12/13 12:32:11;;;;;;;;;;;;;;;5.55;100.00;96036.16;110500;1242;59776;-61
2023/12/13 12:34:46;;;;;;;;;;;;;;;5.56;100.00;96036.92;110588;1241;60059;-61
2023/12/13 12:37:16;;;;;;;;;;;;;;;5.59;100.00;96031.17;110575;1249;71254;-62
2023/12/13 12:39:45;;;;;;;;;;;;;;;5.61;100.00;96029.97;110501;1238;69263;-62
2023/12/13 12:42:14;;;;;;;;;;;;;;;5.62;100.00;96029.70;110448;1243;68504;-62
2023/12/13 12:44:43;;;;;;;;;;;;;;;5.64;100.00;96029.81;110556;1240;59800;-62
2023/12/13 12:47:12;;;;;;;;;;;;;;;5.66;100.00;96019.83;110522;1243;59676;-62
2023/12/13 12:49:43;;;;;;;;;;;;;;;5.67;100.00;96016.83;110287;1243;71696;-61
2023/12/13 12:52:13;;;;;;;;;;;;;;;5.67;100.00;96016.60;110311;1242;69360;-61
2023/12/13 12:54:42;;;;;;;;;;;;;;;5.65;100.00;96007.04;110640;1242;69264;-61